Time;durP1;ratioP1;P1;durP2;ratioP2;P2;SDS_P1;SDS_P2;PMS_P1;PMS_P2;Temp;Humidity;BMP_temperature;BMP_pressure;BME280_temperature;BME280_humidity;BME280_pressure;Samples;Min_cycle;Max_cycle;Signal;HPM_P1;HPM_P2
2022/04/06 00:00:24;;;;;;;11.05;9.48;;;;;;;8.02;98.95;99568.13;7397268;19;20018;-66
2022/04/06 00:02:52;;;;;;;11.13;9.63;;;;;;;8.02;99.18;99562.91;7396433;19;20510;-66
2022/04/06 00:05:20;;;;;;;11.80;10.07;;;;;;;8.03;99.03;99565.44;7398778;19;20026;-66
2022/04/06 00:07:48;;;;;;;10.60;9.38;;;;;;;8.06;98.86;99569.72;7396303;19;20095;-66
2022/04/06 00:10:17;;;;;;;11.50;9.57;;;;;;;8.07;98.54;99574.91;7397100;19;20022;-66
2022/04/06 00:12:45;;;;;;;11.43;9.18;;;;;;;8.09;98.72;99569.66;7397669;19;20019;-66
2022/04/06 00:15:16;;;;;;;11.32;10.13;;;;;;;8.11;98.65;99578.28;7398154;19;20510;-66
2022/04/06 00:17:44;;;;;;;11.00;9.80;;;;;;;8.12;98.37;99566.94;7396532;19;20039;-66
2022/04/06 00:20:12;;;;;;;11.30;9.27;;;;;;;8.13;98.33;99577.34;7398449;19;20039;-66
2022/04/06 00:22:41;;;;;;;9.82;8.68;;;;;;;8.15;98.40;99566.81;7395974;19;20028;-66
2022/04/06 00:25:10;;;;;;;10.77;9.07;;;;;;;8.16;98.04;99573.78;7395504;19;20019;-66
2022/04/06 00:27:38;;;;;;;9.80;8.80;;;;;;;8.17;97.79;99575.47;7396025;19;20040;-66
2022/04/06 00:30:08;;;;;;;10.65;9.38;;;;;;;8.20;97.81;99577.16;7395950;19;20018;-66
2022/04/06 00:32:39;;;;;;;10.50;8.95;;;;;;;8.21;97.54;99577.09;7396062;19;20022;-66
2022/04/06 00:37:49;;;;;;;10.15;8.10;;;;;;;8.26;97.60;99561.28;7396453;19;20019;-66
2022/04/06 00:40:19;;;;;;;10.52;8.32;;;;;;;8.27;97.25;99557.78;7395845;19;20026;-66
2022/04/06 00:42:48;;;;;;;10.40;8.75;;;;;;;8.29;96.98;99555.94;7397735;19;20022;-66
2022/04/06 00:45:16;;;;;;;8.65;7.53;;;;;;;8.30;96.63;99562.88;7395640;19;20022;-66
2022/04/06 00:47:47;;;;;;;12.30;8.52;;;;;;;8.30;96.67;99555.91;7395819;19;20026;-66
2022/04/06 00:50:15;;;;;;;10.85;9.50;;;;;;;8.32;96.67;99554.09;7393521;19;20023;-66
2022/04/06 00:52:43;;;;;;;10.10;8.73;;;;;;;8.35;96.25;99560.16;7397049;19;20423;-66
2022/04/06 00:55:13;;;;;;;10.40;9.30;;;;;;;8.35;96.25;99560.97;7397300;19;20022;-66
2022/04/06 00:57:42;;;;;;;10.63;9.15;;;;;;;8.36;95.74;99552.25;7396828;19;20022;-66
2022/04/06 01:00:11;;;;;;;11.35;9.45;;;;;;;8.38;95.82;99554.81;7396886;19;20478;-66
2022/04/06 01:02:39;;;;;;;10.88;9.77;;;;;;;8.39;95.87;99548.69;7395322;19;20033;-66
2022/04/06 01:05:13;;;;;;;11.05;8.93;;;;;;;8.40;95.56;99558.25;7395635;19;20031;-66
2022/04/06 01:07:41;;;;;;;11.73;10.27;;;;;;;8.42;95.46;99549.44;7396345;19;20037;-66
2022/04/06 01:10:10;;;;;;;10.75;9.65;;;;;;;8.44;95.73;99552.88;7395244;19;20465;-66
2022/04/06 01:12:39;;;;;;;11.02;9.80;;;;;;;8.45;95.68;99551.09;7398595;19;20022;-66
2022/04/06 01:15:09;;;;;;;11.90;10.00;;;;;;;8.46;95.77;99552.84;7397449;19;20022;-66
2022/04/06 01:17:38;;;;;;;13.57;10.88;;;;;;;8.45;95.58;99557.19;7394747;19;20026;-66
2022/04/06 01:20:08;;;;;;;14.45;10.77;;;;;;;8.44;96.03;99545.03;7396607;19;20019;-66
2022/04/06 01:22:46;;;;;;;13.60;10.15;;;;;;;8.44;96.11;99559.84;7396573;19;20017;-66
2022/04/06 01:25:14;;;;;;;12.35;10.55;;;;;;;8.42;96.20;99556.44;7395130;19;20015;-67
2022/04/06 01:27:42;;;;;;;12.38;10.63;;;;;;;8.41;96.43;99558.19;7395440;19;20485;-66
2022/04/06 01:30:12;;;;;;;11.95;10.73;;;;;;;8.41;96.73;99562.56;7395130;19;20014;-66
2022/04/06 01:32:40;;;;;;;14.82;11.48;;;;;;;8.38;96.91;99558.28;7395050;19;20010;-66
2022/04/06 01:35:09;;;;;;;12.68;10.50;;;;;;;8.38;96.94;99557.41;7394387;19;20036;-66
2022/04/06 01:37:38;;;;;;;13.77;11.27;;;;;;;8.36;97.12;99557.47;7394217;19;20032;-67
2022/04/06 01:40:09;;;;;;;13.68;10.80;;;;;;;8.34;97.38;99547.97;7394042;19;20031;-67
2022/04/06 01:42:37;;;;;;;14.32;11.27;;;;;;;8.34;97.22;99553.19;7393639;19;20370;-67
2022/04/06 01:45:07;;;;;;;14.32;10.50;;;;;;;8.33;97.30;99544.53;7395663;19;20023;-66
2022/04/06 01:47:35;;;;;;;13.70;10.43;;;;;;;8.32;97.50;99545.41;7394701;19;20031;-67
2022/04/06 01:52:44;;;;;;;15.32;11.60;;;;;;;8.31;97.86;99551.53;7396066;19;20014;-67
2022/04/06 01:55:17;;;;;;;18.23;12.32;;;;;;;8.31;97.75;99551.53;7395393;19;20027;-67
2022/04/06 01:57:46;;;;;;;17.17;12.15;;;;;;;8.30;97.60;99550.69;7394672;19;20035;-65
2022/04/06 02:00:16;;;;;;;15.70;12.13;;;;;;;8.28;97.71;99552.50;7393585;19;20019;-66
2022/04/06 02:02:48;;;;;;;17.17;13.02;;;;;;;8.29;98.37;99545.50;7393480;19;20031;-67
2022/04/06 02:05:16;;;;;;;17.90;12.40;;;;;;;8.27;98.47;99545.56;7393470;19;20015;-66
2022/04/06 02:07:46;;;;;;;20.25;12.77;;;;;;;8.25;98.98;99546.50;7394037;19;20022;-67
2022/04/06 02:10:18;;;;;;;17.98;13.35;;;;;;;8.25;98.82;99556.97;7393985;19;20032;-67
2022/04/06 02:12:47;;;;;;;20.08;13.25;;;;;;;8.23;98.65;99557.00;7394493;19;20028;-67
2022/04/06 02:15:16;;;;;;;19.40;12.90;;;;;;;8.23;99.33;99562.25;7394980;19;20027;-67
2022/04/06 02:17:45;;;;;;;19.15;13.98;;;;;;;8.24;99.32;99552.63;7394857;19;20022;-67
2022/04/06 02:20:14;;;;;;;21.55;13.70;;;;;;;8.22;98.92;99557.91;7393862;19;20014;-67
2022/04/06 02:22:42;;;;;;;19.40;13.15;;;;;;;8.22;99.45;99565.75;7394641;19;20031;-67
2022/04/06 02:25:18;;;;;;;19.35;13.75;;;;;;;8.23;99.47;99558.78;7393982;19;20015;-67
2022/04/06 02:27:51;;;;;;;22.10;14.32;;;;;;;8.23;99.62;99550.94;7393241;19;20018;-67
2022/04/06 02:30:19;;;;;;;22.00;14.75;;;;;;;8.22;99.78;99549.22;7392939;19;20383;-67
2022/04/06 02:32:48;;;;;;;24.27;15.68;;;;;;;8.20;100.00;99530.13;7392046;19;20380;-67
2022/04/06 02:35:16;;;;;;;22.92;15.38;;;;;;;8.21;100.00;99548.34;7391956;19;20431;-67
2022/04/06 02:37:45;;;;;;;23.33;14.80;;;;;;;8.20;100.00;99530.13;7393015;19;20155;-67
2022/04/06 02:40:15;;;;;;;25.80;16.02;;;;;;;8.20;100.00;99535.34;7394056;19;20034;-66
2022/04/06 02:42:44;;;;;;;24.23;16.00;;;;;;;8.20;99.89;99536.22;7394155;19;20018;-67
2022/04/06 02:45:15;;;;;;;22.42;14.05;;;;;;;8.21;99.81;99540.50;7394759;19;20018;-67
2022/04/06 02:47:43;;;;;;;26.20;16.13;;;;;;;8.21;99.72;99535.28;7392803;19;20021;-66
2022/04/06 02:50:11;;;;;;;23.50;14.77;;;;;;;8.20;99.81;99531.00;7392989;19;20019;-66
2022/04/06 02:52:39;;;;;;;20.65;12.95;;;;;;;8.20;99.44;99535.34;7391774;19;20031;-67
2022/04/06 02:55:12;;;;;;;23.35;14.73;;;;;;;8.17;99.58;99525.84;7393900;19;20023;-66
2022/04/06 02:57:41;;;;;;;27.50;15.77;;;;;;;8.18;99.53;99535.41;7392519;19;20385;-67
2022/04/06 03:00:11;;;;;;;26.13;14.95;;;;;;;8.17;99.50;99536.28;7391504;19;20384;-66
2022/04/06 03:02:42;;;;;;;22.45;14.00;;;;;;;8.16;99.49;99539.81;7390844;19;20121;-67
2022/04/06 03:05:11;;;;;;;25.33;14.27;;;;;;;8.14;99.80;99539.84;7393781;19;20035;-67
2022/04/06 03:07:39;;;;;;;20.13;12.02;;;;;;;8.13;100.00;99537.31;7391979;19;20391;-67
2022/04/06 03:10:08;;;;;;;15.25;10.45;;;;;;;8.12;100.00;99549.50;7391211;19;20014;-67
2022/04/06 03:12:36;;;;;;;15.18;10.60;;;;;;;8.09;100.00;99554.81;7391206;19;20028;-67
2022/04/06 03:15:04;;;;;;;15.45;10.98;;;;;;;8.07;100.00;99542.72;7399584;19;20019;-67
2022/04/06 03:17:32;;;;;;;17.23;10.88;;;;;;;8.06;100.00;99543.59;7397827;19;20026;-67
2022/04/06 03:20:04;;;;;;;18.88;12.43;;;;;;;8.05;100.00;99542.75;7397614;19;20014;-67
2022/04/06 03:22:32;;;;;;;18.13;11.82;;;;;;;8.02;100.00;99547.22;7398300;19;20039;-67
2022/04/06 03:25:00;;;;;;;12.57;8.15;;;;;;;7.95;100.00;99536.97;7396826;19;20027;-67
2022/04/06 03:27:29;;;;;;;9.93;7.65;;;;;;;7.93;100.00;99556.19;7398935;19;20022;-67
2022/04/06 03:29:57;;;;;;;9.57;7.00;;;;;;;7.88;99.71;99543.25;7400113;19;20014;-67
2022/04/06 03:32:25;;;;;;;10.10;6.55;;;;;;;7.84;98.66;99562.53;7399563;19;20435;-66
2022/04/06 03:34:53;;;;;;;9.65;7.07;;;;;;;7.82;99.45;99556.50;7399648;19;20028;-66
2022/04/06 03:37:24;;;;;;;9.82;6.90;;;;;;;7.78;99.49;99560.09;7396842;19;20023;-66
2022/04/06 03:39:52;;;;;;;10.50;7.75;;;;;;;7.75;100.00;99560.22;7399660;19;20078;-66
2022/04/06 03:42:20;;;;;;;12.05;7.15;;;;;;;7.71;99.90;99553.34;7397715;19;20023;-66
2022/04/06 03:44:48;;;;;;;11.00;7.30;;;;;;;7.66;99.59;99549.13;7397089;19;20023;-65
2022/04/06 03:47:17;;;;;;;12.70;7.53;;;;;;;7.64;100.00;99591.81;7397215;19;20026;-66
2022/04/06 03:49:45;;;;;;;15.38;9.73;;;;;;;7.60;100.00;99564.94;7399256;19;20028;-66
2022/04/06 03:52:13;;;;;;;16.13;9.73;;;;;;;7.57;100.00;99567.66;7396669;19;20026;-66
2022/04/06 03:54:46;;;;;;;13.05;9.43;;;;;;;7.54;100.00;99572.94;7396718;19;20022;-66
2022/04/06 03:57:14;;;;;;;18.20;10.10;;;;;;;7.52;100.00;99590.44;7398512;19;20047;-65
2022/04/06 03:59:42;;;;;;;16.60;10.38;;;;;;;7.50;100.00;99566.13;7396440;19;20023;-65
2022/04/06 04:02:11;;;;;;;14.25;10.15;;;;;;;7.47;100.00;99567.06;7396495;19;20019;-65
2022/04/06 04:04:39;;;;;;;15.70;10.45;;;;;;;7.48;100.00;99578.34;7396465;19;20028;-65
2022/04/06 04:07:08;;;;;;;17.70;11.32;;;;;;;7.48;100.00;99570.50;7398072;19;20023;-65
2022/04/06 04:09:36;;;;;;;17.38;10.77;;;;;;;7.49;100.00;99574.84;7398957;19;20032;-70
2022/04/06 04:12:08;;;;;;;17.52;10.98;;;;;;;7.49;100.00;99561.78;7395738;19;20499;-66
2022/04/06 04:14:37;;;;;;;15.55;11.02;;;;;;;7.50;100.00;99579.16;7398205;19;20018;-65
2022/04/06 04:17:05;;;;;;;16.10;10.65;;;;;;;7.51;100.00;99578.28;7395354;19;20019;-65
2022/04/06 04:19:33;;;;;;;16.27;11.45;;;;;;;7.52;100.00;99576.50;7397776;19;20028;-65
2022/04/06 04:22:01;;;;;;;16.50;11.55;;;;;;;7.52;100.00;99581.72;7395855;19;20027;-66
2022/04/06 04:24:30;;;;;;;17.88;11.18;;;;;;;7.52;100.00;99573.91;7396230;19;20015;-66
2022/04/06 04:26:58;;;;;;;17.10;11.50;;;;;;;7.52;100.00;99574.78;7397397;19;20027;-66
2022/04/06 04:29:28;;;;;;;19.25;12.05;;;;;;;7.53;100.00;99573.00;7398268;19;20022;-66
2022/04/06 04:31:56;;;;;;;16.48;12.32;;;;;;;7.54;100.00;99572.09;7395528;19;20414;-66
2022/04/06 04:34:25;;;;;;;20.42;12.43;;;;;;;7.53;100.00;99566.00;7394466;19;20032;-66
2022/04/06 04:36:54;;;;;;;19.95;12.57;;;;;;;7.52;100.00;99569.56;7395291;19;20043;-66
2022/04/06 04:39:22;;;;;;;18.17;12.90;;;;;;;7.53;100.00;99579.06;7397127;19;20122;-65
2022/04/06 04:41:50;;;;;;;19.98;12.85;;;;;;;7.53;100.00;99573.84;7394644;19;20482;-64
2022/04/06 04:44:18;;;;;;;19.77;12.57;;;;;;;7.53;100.00;99583.44;7395500;19;20036;-65
2022/04/06 04:46:49;;;;;;;22.15;13.35;;;;;;;7.54;100.00;99582.56;7396935;19;20018;-66
2022/04/06 04:49:17;;;;;;;19.67;13.25;;;;;;;7.54;100.00;99575.56;7395205;19;20426;-63
2022/04/06 04:51:45;;;;;;;21.10;13.35;;;;;;;7.55;100.00;99566.84;7394981;19;20490;-65
2022/04/06 04:54:14;;;;;;;20.30;13.60;;;;;;;7.57;100.00;99569.41;7396007;19;20039;-65
2022/04/06 04:56:42;;;;;;;22.38;13.35;;;;;;;7.56;100.00;99571.16;7394891;19;20019;-66
2022/04/06 04:59:11;;;;;;;22.63;13.27;;;;;;;7.56;100.00;99571.16;7395779;19;20025;-66
2022/04/06 05:01:39;;;;;;;20.42;13.80;;;;;;;7.57;100.00;99574.63;7395391;19;20382;-65
2022/04/06 05:04:10;;;;;;;23.20;14.27;;;;;;;7.57;100.00;99567.66;7396597;19;20027;-65
2022/04/06 05:06:38;;;;;;;25.75;14.63;;;;;;;7.59;100.00;99567.63;7395756;19;20022;-66
2022/04/06 05:09:07;;;;;;;25.83;16.00;;;;;;;7.60;100.00;99566.72;7394452;19;20022;-66
2022/04/06 05:11:35;;;;;;;29.60;16.05;;;;;;;7.61;100.00;99563.22;7393762;19;20018;-63
2022/04/06 05:14:03;;;;;;;27.98;18.00;;;;;;;7.62;100.00;99565.78;7395861;19;20018;-65
2022/04/06 05:16:31;;;;;;;30.58;17.30;;;;;;;7.64;100.00;99570.94;7396193;19;20043;-66
2022/04/06 05:19:01;;;;;;;29.63;16.88;;;;;;;7.65;100.00;99576.13;7395165;19;20018;-65
2022/04/06 05:21:31;;;;;;;28.15;16.33;;;;;;;7.65;100.00;99576.13;7392647;19;20014;-65
2022/04/06 05:24:00;;;;;;;36.75;18.20;;;;;;;7.66;100.00;99577.84;7394092;19;20017;-65
2022/04/06 05:26:28;;;;;;;30.52;18.27;;;;;;;7.65;100.00;99578.72;7396286;19;20018;-65
2022/04/06 05:28:56;;;;;;;31.33;17.33;;;;;;;7.68;100.00;99577.78;7393940;19;20019;-65
2022/04/06 05:31:25;;;;;;;32.33;18.60;;;;;;;7.67;100.00;99578.69;7394013;19;20022;-65
2022/04/06 05:33:53;;;;;;;28.33;16.98;;;;;;;7.68;100.00;99574.31;7393551;19;20019;-66
2022/04/06 05:36:23;;;;;;;32.92;18.70;;;;;;;7.70;100.00;99575.16;7394182;19;20015;-65
2022/04/06 05:38:54;;;;;;;33.05;17.45;;;;;;;7.70;100.00;99576.00;7392920;19;20363;-65
2022/04/06 05:41:22;;;;;;;31.98;18.40;;;;;;;7.70;100.00;99575.16;7395202;19;20014;-65
2022/04/06 05:43:50;;;;;;;34.72;18.67;;;;;;;7.69;100.00;99566.44;7394712;19;20018;-65
2022/04/06 05:46:18;;;;;;;32.75;19.00;;;;;;;7.71;100.00;99569.00;7393546;19;20023;-65
2022/04/06 05:48:46;;;;;;;34.80;19.73;;;;;;;7.71;100.00;99574.22;7393783;19;20069;-65
2022/04/06 05:51:14;;;;;;;33.33;18.45;;;;;;;7.71;100.00;99577.72;7394193;19;20483;-65
2022/04/06 05:53:43;;;;;;;31.35;18.05;;;;;;;7.71;100.00;99579.44;7395062;19;20019;-65
2022/04/06 05:56:13;;;;;;;31.65;17.35;;;;;;;7.73;100.00;99583.72;7394819;19;20031;-65
2022/04/06 05:58:43;;;;;;;30.23;16.58;;;;;;;7.74;100.00;99589.81;7393156;19;20043;-65
2022/04/06 06:01:11;;;;;;;28.85;17.45;;;;;;;7.76;100.00;99593.22;7393358;19;20032;-65
2022/04/06 06:03:39;;;;;;;36.67;18.30;;;;;;;7.75;100.00;99587.16;7394188;19;20022;-65
2022/04/06 06:06:07;;;;;;;26.90;16.30;;;;;;;7.74;100.00;99592.44;7394317;19;20018;-65
2022/04/06 06:08:35;;;;;;;24.50;15.93;;;;;;;7.75;100.00;99597.59;7393053;19;20050;-65
2022/04/06 06:11:03;;;;;;;35.58;17.90;;;;;;;7.75;100.00;99596.75;7393599;19;20036;-66
2022/04/06 06:13:34;;;;;;;29.70;17.40;;;;;;;7.76;100.00;99601.94;7392640;19;20025;-66
2022/04/06 06:16:03;;;;;;;26.23;16.13;;;;;;;7.76;100.00;99596.72;7394627;19;20027;-66
2022/04/06 06:18:31;;;;;;;29.77;16.25;;;;;;;7.77;100.00;99593.22;7392116;19;20018;-66
2022/04/06 06:21:01;;;;;;;27.50;16.58;;;;;;;7.78;100.00;99596.66;7394227;19;20027;-66
2022/04/06 06:23:29;;;;;;;27.05;16.42;;;;;;;7.78;100.00;99594.88;7391863;19;20007;-66
2022/04/06 06:25:57;;;;;;;29.80;16.52;;;;;;;7.78;100.00;99586.22;7391920;19;20530;-66
2022/04/06 06:28:26;;;;;;;29.10;16.27;;;;;;;7.79;100.00;99580.09;7391423;19;20011;-66
2022/04/06 06:30:57;;;;;;;25.88;16.10;;;;;;;7.80;100.00;99584.44;7391140;19;20019;-66
2022/04/06 06:33:25;;;;;;;28.35;16.23;;;;;;;7.82;99.92;99585.22;7392583;19;20380;-66
2022/04/06 06:35:53;;;;;;;25.42;15.13;;;;;;;7.83;99.83;99579.97;7392688;19;20099;-66
2022/04/06 06:38:21;;;;;;;28.77;15.40;;;;;;;7.86;99.90;99583.38;7392105;19;20019;-66
2022/04/06 06:40:49;;;;;;;25.70;15.40;;;;;;;7.87;99.68;99585.09;7393260;19;20027;-66
2022/04/06 06:43:18;;;;;;;25.58;15.05;;;;;;;7.88;99.52;99581.59;7393322;19;20019;-66
2022/04/06 06:45:46;;;;;;;26.60;16.42;;;;;;;7.91;99.21;99586.72;7392394;19;20507;-66
2022/04/06 06:48:16;;;;;;;27.45;16.70;;;;;;;7.94;99.54;99586.63;7391714;19;20035;-66
2022/04/06 06:50:45;;;;;;;30.70;16.33;;;;;;;7.96;99.39;99587.44;7400579;19;20097;-66
2022/04/06 06:53:13;;;;;;;27.27;15.40;;;;;;;7.99;99.07;99593.41;7397815;19;20035;-66
2022/04/06 06:55:41;;;;;;;24.02;15.75;;;;;;;7.99;98.48;99589.97;7400461;19;20015;-66
2022/04/06 06:58:09;;;;;;;23.95;15.30;;;;;;;8.04;98.70;99589.81;7398871;19;20026;-66
2022/04/06 07:00:37;;;;;;;22.45;14.90;;;;;;;8.08;98.69;99591.44;7398375;19;20014;-66
2022/04/06 07:03:06;;;;;;;21.38;15.00;;;;;;;8.14;98.42;99588.66;7397394;19;20375;-66
2022/04/06 07:05:36;;;;;;;21.92;13.95;;;;;;;8.19;97.88;99591.97;7397681;19;20031;-67
2022/04/06 07:08:06;;;;;;;24.95;14.40;;;;;;;8.22;97.61;99584.03;7398899;19;20022;-67
2022/04/06 07:10:34;;;;;;;27.63;14.05;;;;;;;8.29;97.37;99579.47;7400566;19;20039;-67
2022/04/06 07:13:02;;;;;;;27.73;15.18;;;;;;;8.34;97.23;99574.97;7397211;19;20022;-67
2022/04/06 07:15:31;;;;;;;24.63;13.90;;;;;;;8.41;97.09;99575.63;7397626;19;20014;-66
2022/04/06 07:18:07;;;;;;;23.15;12.90;;;;;;;8.46;96.40;99577.22;7397724;19;20027;-67
2022/04/06 07:20:39;;;;;;;23.00;13.65;;;;;;;8.51;95.56;99571.84;7400046;19;20374;-66
2022/04/06 07:23:09;;;;;;;24.38;13.40;;;;;;;8.56;95.81;99574.31;7400362;19;20018;-65
2022/04/06 07:25:39;;;;;;;17.83;11.43;;;;;;;8.60;94.96;99568.94;7397193;19;20027;-66
2022/04/06 07:28:08;;;;;;;22.98;11.98;;;;;;;8.63;93.99;99567.97;7397140;19;20533;-66
2022/04/06 07:30:36;;;;;;;21.45;11.60;;;;;;;8.66;93.82;99570.50;7399165;19;20427;-66
2022/04/06 07:33:05;;;;;;;16.23;10.20;;;;;;;8.70;92.13;99563.41;7396612;19;20018;-66
2022/04/06 07:35:35;;;;;;;17.70;10.48;;;;;;;8.74;92.93;99565.03;7398735;19;20478;-66
2022/04/06 07:38:06;;;;;;;18.67;9.93;;;;;;;8.78;92.06;99562.25;7397761;19;20042;-66
2022/04/06 07:40:35;;;;;;;17.67;9.45;;;;;;;8.83;92.67;99562.09;7397047;19;20019;-66
2022/04/06 07:43:03;;;;;;;15.27;10.18;;;;;;;8.89;91.56;99553.19;7398639;19;20452;-66
2022/04/06 07:45:32;;;;;;;14.55;9.25;;;;;;;8.91;91.34;99556.59;7399035;19;20018;-66
2022/04/06 07:48:00;;;;;;;14.45;9.00;;;;;;;8.92;88.97;99561.81;7397654;19;20031;-66
2022/04/06 07:50:29;;;;;;;17.63;9.38;;;;;;;8.96;90.77;99560.78;7400247;19;20031;-65
2022/04/06 07:52:57;;;;;;;14.82;9.65;;;;;;;9.03;91.30;99563.19;7396949;19;20030;-65
2022/04/06 07:55:28;;;;;;;17.40;9.63;;;;;;;9.08;91.05;99551.63;7396558;19;20026;-64
2022/04/06 07:57:56;;;;;;;15.60;9.68;;;;;;;9.14;90.43;99550.59;7397393;19;20389;-65
2022/04/06 08:00:24;;;;;;;16.30;10.07;;;;;;;9.18;90.05;99546.09;7397786;19;20481;-65
2022/04/06 08:02:53;;;;;;;19.17;9.88;;;;;;;9.20;89.36;99542.53;7396635;19;20031;-65
2022/04/06 08:05:21;;;;;;;18.10;10.38;;;;;;;9.17;89.94;99542.63;7396036;19;20015;-65
2022/04/06 08:07:52;;;;;;;16.23;8.95;;;;;;;9.24;88.58;99541.50;7396103;19;20035;-66
2022/04/06 08:10:20;;;;;;;16.13;9.70;;;;;;;9.34;88.59;99536.81;7399090;19;20354;-65
2022/04/06 08:12:51;;;;;;;17.83;10.38;;;;;;;9.40;87.33;99541.81;7396144;19;20031;-65
2022/04/06 08:15:19;;;;;;;16.52;10.02;;;;;;;9.50;88.02;99544.94;7399013;19;20039;-65
2022/04/06 08:17:49;;;;;;;16.02;9.88;;;;;;;9.61;88.47;99548.00;7397040;19;20031;-66
2022/04/06 08:20:26;;;;;;;14.55;10.63;;;;;;;9.71;86.68;99550.31;7397827;19;20043;-65
2022/04/06 08:22:56;;;;;;;18.58;9.90;;;;;;;9.80;85.58;99544.72;7397659;19;20419;-65
2022/04/06 08:25:24;;;;;;;15.57;9.80;;;;;;;9.88;84.88;99537.44;7394656;19;20011;-67
2022/04/06 08:27:55;;;;;;;18.60;10.10;;;;;;;9.94;84.25;99558.16;7395110;19;20485;-65
2022/04/06 08:30:23;;;;;;;16.38;9.98;;;;;;;10.03;83.18;99542.97;7395230;19;20131;-65
2022/04/06 08:32:58;;;;;;;15.48;9.80;;;;;;;10.12;83.92;99547.84;7395934;19;20019;-65
2022/04/06 08:35:26;;;;;;;19.13;10.27;;;;;;;10.22;80.69;99546.59;7395097;19;20095;-66
2022/04/06 08:37:55;;;;;;;17.23;9.95;;;;;;;10.30;80.31;99542.81;7394841;19;20022;-65
2022/04/06 08:40:23;;;;;;;15.32;9.65;;;;;;;10.38;81.69;99551.25;7395107;19;20047;-65
2022/04/06 08:42:51;;;;;;;14.63;9.27;;;;;;;10.45;81.45;99539.63;7397127;19;20023;-65
2022/04/06 08:45:22;;;;;;;14.75;9.25;;;;;;;10.53;80.11;99549.81;7394875;19;20028;-66
2022/04/06 08:47:52;;;;;;;25.75;9.68;;;;;;;10.61;79.74;99557.34;7395201;19;20014;-65
2022/04/06 08:50:21;;;;;;;15.73;9.00;;;;;;;10.67;78.26;99544.81;7397122;19;20011;-65
2022/04/06 08:52:50;;;;;;;13.73;8.63;;;;;;;10.73;78.64;99541.94;7395358;19;20028;-65
2022/04/06 08:55:18;;;;;;;13.35;8.20;;;;;;;10.79;77.56;99537.38;7394815;19;20019;-66
2022/04/06 08:57:46;;;;;;;14.40;8.32;;;;;;;10.86;75.40;99542.28;7394938;19;20030;-65
2022/04/06 09:00:17;;;;;;;13.65;8.65;;;;;;;10.91;74.63;99540.31;7394468;19;20392;-66
2022/04/06 09:02:48;;;;;;;11.48;7.45;;;;;;;10.97;73.67;99540.97;7396261;19;20019;-65
2022/04/06 09:05:17;;;;;;;12.82;8.40;;;;;;;11.02;73.30;99536.38;7394443;19;20027;-66
2022/04/06 09:07:46;;;;;;;12.30;7.75;;;;;;;11.08;75.16;99537.00;7395007;19;20046;-68
2022/04/06 09:10:14;;;;;;;13.65;8.05;;;;;;;11.15;74.53;99544.59;7395039;19;20019;-67
2022/04/06 09:12:42;;;;;;;12.88;7.63;;;;;;;11.18;71.01;99549.72;7392057;19;20035;-66
2022/04/06 09:15:12;;;;;;;11.57;7.32;;;;;;;11.19;71.60;99544.38;7393576;19;20081;-66
2022/04/06 09:17:52;;;;;;;11.63;8.20;;;;;;;11.19;70.15;99554.88;7395298;19;20045;-66
2022/04/06 09:20:26;;;;;;;14.25;8.05;;;;;;;11.19;72.25;99547.00;7396486;19;20011;-66
2022/04/06 09:22:54;;;;;;;12.60;7.40;;;;;;;11.15;71.53;99536.72;7395875;19;20059;-71
2022/04/06 09:25:23;;;;;;;17.95;8.55;;;;;;;11.18;73.71;99549.72;7393288;19;20007;-65
2022/04/06 09:27:51;;;;;;;11.45;8.50;;;;;;;11.20;71.59;99550.50;7394031;19;20549;-66
2022/04/06 09:30:19;;;;;;;12.07;7.25;;;;;;;11.24;73.50;99550.28;7395810;19;20023;-65
2022/04/06 09:32:50;;;;;;;11.23;7.18;;;;;;;11.26;72.13;99542.38;7394873;19;20018;-67
2022/04/06 09:35:30;;;;;;;14.48;7.60;;;;;;;11.27;70.11;99545.81;7393751;19;20010;-66
2022/04/06 09:38:12;;;;;;;15.77;6.78;;;;;;;11.24;70.40;99531.91;7392999;19;20088;-65
2022/04/06 09:40:43;;;;;;;13.80;7.60;;;;;;;11.25;71.61;99538.88;7394507;19;20018;-66
2022/04/06 09:43:25;;;;;;;11.65;6.60;;;;;;;11.25;72.77;99538.88;7394123;19;20557;-67
2022/04/06 09:48:54;;;;;;;11.75;7.70;;;;;;;11.31;69.40;99531.63;7392903;19;20018;-67
2022/04/06 09:51:22;;;;;;;9.45;6.85;;;;;;;11.33;71.24;99529.81;7395155;19;20026;-68
2022/04/06 09:53:52;;;;;;;14.27;6.97;;;;;;;11.34;71.97;99536.78;7392866;19;20022;-68
2022/04/06 09:56:20;;;;;;;11.60;6.03;;;;;;;11.35;70.83;99522.72;7394979;19;20016;-65
2022/04/06 09:58:49;;;;;;;11.50;6.35;;;;;;;11.35;71.06;99534.06;7393841;19;20022;-66
2022/04/06 10:01:18;;;;;;;9.63;6.47;;;;;;;11.32;67.92;99549.09;7392893;19;20031;-66
2022/04/06 10:03:52;;;;;;;12.95;7.35;;;;;;;11.33;67.75;99551.66;7392505;19;20503;-66
2022/04/06 10:06:20;;;;;;;17.17;7.82;;;;;;;11.35;69.36;99528.81;7392225;19;20384;-66
2022/04/06 10:08:50;;;;;;;14.07;6.70;;;;;;;11.35;68.27;99523.56;7392095;19;20039;-67
2022/04/06 10:11:19;;;;;;;12.55;6.80;;;;;;;11.34;69.15;99536.78;7392075;19;20055;-67
2022/04/06 10:13:49;;;;;;;11.73;6.55;;;;;;;11.35;69.58;99538.47;7392186;19;20018;-67
2022/04/06 10:16:20;;;;;;;13.70;6.78;;;;;;;11.37;68.90;99536.63;7392569;19;20486;-68
2022/04/06 10:18:53;;;;;;;15.05;6.47;;;;;;;11.41;69.68;99538.19;7391509;19;20350;-68
2022/04/06 10:21:26;;;;;;;13.43;6.78;;;;;;;11.45;68.87;99531.03;7392351;19;20023;-67
2022/04/06 10:24:16;;;;;;;13.10;6.95;;;;;;;11.46;69.85;99533.59;7396874;19;20018;-69
2022/04/06 10:27:04;;;;;;;10.50;7.38;;;;;;;11.45;67.34;99531.91;7404560;19;20015;-67
2022/04/06 10:29:32;;;;;;;10.10;6.93;;;;;;;11.45;69.87;99525.78;7398077;19;20025;-65
2022/04/06 10:32:00;;;;;;;11.63;6.70;;;;;;;11.40;68.17;99511.06;7401158;19;20011;-66
2022/04/06 10:34:36;;;;;;;11.07;6.93;;;;;;;11.34;67.44;99531.53;7401249;19;20031;-67
2022/04/06 10:37:11;;;;;;;11.10;7.05;;;;;;;11.30;67.84;99525.53;7400949;19;20030;-67
2022/04/06 10:40:00;;;;;;;7.57;5.78;;;;;;;11.22;65.77;99527.63;7402272;19;20018;-66
2022/04/06 10:42:34;;;;;;;11.00;5.57;;;;;;;11.14;67.48;99524.50;7400971;19;20018;-66
2022/04/06 10:45:03;;;;;;;10.18;7.05;;;;;;;11.09;66.34;99516.84;7401482;19;20014;-65
2022/04/06 10:47:32;;;;;;;10.48;6.72;;;;;;;11.06;67.79;99516.97;7396678;19;20019;-66
2022/04/06 10:50:25;;;;;;;9.50;5.90;;;;;;;11.03;67.38;99527.59;7400312;19;20391;-67
2022/04/06 10:53:32;;;;;;;9.25;5.68;;;;;;;11.01;67.76;99521.56;7397277;19;20038;-67
2022/04/06 10:56:02;;;;;;;9.27;6.35;;;;;;;10.91;68.55;99503.59;7399982;19;20018;-67
2022/04/06 10:58:31;;;;;;;11.25;5.88;;;;;;;10.97;69.22;99518.22;7398193;19;20074;-66
2022/04/06 11:01:18;;;;;;;11.85;6.15;;;;;;;10.97;67.57;99512.09;7400625;19;20498;-67
2022/04/06 11:03:58;;;;;;;10.32;6.60;;;;;;;10.97;67.95;99505.09;7400127;19;20093;-67
2022/04/06 11:06:56;;;;;;;11.05;5.43;;;;;;;11.05;67.16;99507.41;7396549;19;20487;-67
2022/04/06 11:12:14;;;;;;;8.98;5.68;;;;;;;11.28;67.14;99501.13;7399618;19;20104;-67
2022/04/06 11:14:43;;;;;;;9.50;6.05;;;;;;;11.33;66.22;99499.13;7398135;19;20030;-66
2022/04/06 11:17:37;;;;;;;8.13;5.85;;;;;;;11.38;66.56;99497.16;7394526;19;20055;-67
2022/04/06 11:20:11;;;;;;;5.88;4.97;;;;;;;11.43;66.90;99499.59;7396270;19;20018;-67
2022/04/06 11:22:42;;;;;;;8.38;4.72;;;;;;;11.43;66.73;99504.00;7398065;19;20043;-66
2022/04/06 11:25:15;;;;;;;9.63;5.55;;;;;;;11.37;64.78;99486.72;7396132;19;20010;-66
2022/04/06 11:27:45;;;;;;;7.25;4.28;;;;;;;11.35;66.82;99496.47;7396075;19;20026;-67
2022/04/06 11:30:15;;;;;;;8.45;5.10;;;;;;;11.30;66.98;99507.16;7397975;19;20022;-67
2022/04/06 11:32:46;;;;;;;9.82;5.57;;;;;;;11.23;65.43;99518.84;7397901;19;20015;-67
2022/04/06 11:35:16;;;;;;;10.38;5.10;;;;;;;11.20;64.44;99513.75;7397286;19;20018;-68
2022/04/06 11:37:46;;;;;;;8.90;4.60;;;;;;;11.15;63.77;99515.72;7396812;19;20066;-67
2022/04/06 11:40:19;;;;;;;11.02;4.47;;;;;;;11.12;64.30;99494.84;7395798;19;20356;-67
2022/04/06 11:42:50;;;;;;;9.18;4.30;;;;;;;11.07;63.77;99493.28;7399233;19;20023;-67
2022/04/06 11:45:22;;;;;;;7.38;4.60;;;;;;;11.07;65.14;99503.78;7396456;19;20425;-67
2022/04/06 11:47:55;;;;;;;6.85;4.15;;;;;;;11.07;64.96;99513.44;7398257;19;20018;-68